createdAt,value
2017-07-20T00:00:09.668Z,2.60
2017-07-20T00:02:36.919Z,4.10
2017-07-20T00:05:04.187Z,2.50
2017-07-20T00:07:31.437Z,2.27
2017-07-20T00:09:58.700Z,2.77
2017-07-20T00:12:25.960Z,3.20
2017-07-20T00:14:53.206Z,2.70
2017-07-20T00:17:20.472Z,3.10
2017-07-20T00:19:47.718Z,3.37
2017-07-20T00:22:14.962Z,2.80
2017-07-20T00:24:42.210Z,2.90
2017-07-20T00:27:09.451Z,3.17
2017-07-20T00:29:36.716Z,2.80
2017-07-20T00:32:03.959Z,3.07
2017-07-20T00:34:31.202Z,2.77
2017-07-20T00:36:58.458Z,3.00
2017-07-20T00:39:25.714Z,3.10
2017-07-20T00:41:52.979Z,2.60
2017-07-20T00:44:20.230Z,2.70
2017-07-20T00:46:47.478Z,3.20
2017-07-20T00:49:14.730Z,3.30
2017-07-20T00:51:41.974Z,3.13
2017-07-20T00:54:09.240Z,2.30
2017-07-20T00:56:36.492Z,3.00
2017-07-20T00:59:03.739Z,2.87
2017-07-20T01:01:31.003Z,2.60
2017-07-20T01:03:58.250Z,3.00
2017-07-20T01:06:25.523Z,3.57
2017-07-20T01:08:52.765Z,3.00
2017-07-20T01:11:20.961Z,2.90
2017-07-20T01:13:48.202Z,3.63
2017-07-20T01:16:15.456Z,2.90
2017-07-20T01:18:43.463Z,3.40
2017-07-20T01:21:10.740Z,3.00
2017-07-20T01:23:37.975Z,3.10
2017-07-20T01:26:05.254Z,3.33
2017-07-20T01:28:32.498Z,3.10
2017-07-20T01:30:59.738Z,3.40
2017-07-20T01:33:27.007Z,2.80
2017-07-20T01:35:54.260Z,3.10
2017-07-20T01:38:21.756Z,2.83
2017-07-20T01:40:49.012Z,2.90
2017-07-20T01:43:16.254Z,2.43
2017-07-20T01:45:43.514Z,2.53
2017-07-20T01:48:10.759Z,3.33
2017-07-20T01:50:38.011Z,3.10
2017-07-20T01:53:06.186Z,3.13
2017-07-20T01:55:33.438Z,3.67
2017-07-20T01:58:00.716Z,3.10
2017-07-20T02:00:27.962Z,3.10
2017-07-20T02:02:56.152Z,3.67
2017-07-20T02:05:23.403Z,3.20
2017-07-20T02:07:50.694Z,3.20
2017-07-20T02:10:17.959Z,3.87
2017-07-20T02:12:45.199Z,3.30
2017-07-20T02:15:12.443Z,4.37
2017-07-20T02:17:39.686Z,3.03
2017-07-20T02:20:06.936Z,2.83
2017-07-20T02:22:34.208Z,3.40
2017-07-20T02:25:02.392Z,3.80
2017-07-20T02:27:29.630Z,3.33
2017-07-20T02:29:56.879Z,3.37
2017-07-20T02:32:24.123Z,2.80
2017-07-20T02:34:53.346Z,3.30
2017-07-20T02:37:20.592Z,3.50
2017-07-20T02:39:47.832Z,3.07
2017-07-20T02:42:15.049Z,3.37
2017-07-20T02:44:42.257Z,2.73
2017-07-20T02:47:09.489Z,3.23
2017-07-20T02:49:36.693Z,3.20
2017-07-20T02:52:04.873Z,3.10
2017-07-20T02:54:32.081Z,3.70
2017-07-20T02:56:59.294Z,3.00
2017-07-20T02:59:26.521Z,3.37
2017-07-20T03:01:53.721Z,3.73
2017-07-20T03:04:20.923Z,3.43
2017-07-20T03:06:48.124Z,3.13
2017-07-20T03:09:15.327Z,2.70
2017-07-20T03:11:42.549Z,3.23
2017-07-20T03:14:09.750Z,3.10
2017-07-20T03:16:36.974Z,3.47
2017-07-20T03:19:04.191Z,3.37
2017-07-20T03:21:31.390Z,3.20
2017-07-20T03:23:58.617Z,3.17
2017-07-20T03:26:25.823Z,3.30
2017-07-20T03:28:53.025Z,2.97
2017-07-20T03:31:21.824Z,3.50
2017-07-20T03:33:49.049Z,3.73
2017-07-20T03:36:16.289Z,3.20
2017-07-20T03:38:43.520Z,3.53
2017-07-20T03:41:10.720Z,3.60
2017-07-20T03:43:37.927Z,3.63
2017-07-20T03:46:05.128Z,2.97
2017-07-20T03:48:32.380Z,4.20
2017-07-20T03:50:59.609Z,3.63
2017-07-20T03:53:26.812Z,3.10
2017-07-20T03:55:54.014Z,4.30
2017-07-20T03:58:21.222Z,3.60
2017-07-20T04:00:48.440Z,3.50
2017-07-20T04:03:15.644Z,3.30
2017-07-20T04:05:42.847Z,3.10
2017-07-20T04:08:10.052Z,3.03
2017-07-20T04:10:37.262Z,3.93
2017-07-20T04:13:04.498Z,3.47
2017-07-20T04:15:31.706Z,2.90
2017-07-20T04:17:58.914Z,3.50
2017-07-20T04:20:26.108Z,3.30
2017-07-20T04:22:53.308Z,3.17
2017-07-20T04:25:20.542Z,3.50
2017-07-20T04:27:47.747Z,3.20
2017-07-20T04:30:14.945Z,3.87
2017-07-20T04:32:42.146Z,3.30
2017-07-20T04:35:09.364Z,2.80
2017-07-20T04:37:36.597Z,3.90
2017-07-20T04:40:04.565Z,3.07
2017-07-20T04:42:31.777Z,4.03
2017-07-20T04:44:58.986Z,3.10
2017-07-20T04:47:27.913Z,3.80
2017-07-20T04:49:55.142Z,4.20
2017-07-20T04:52:23.286Z,2.90
2017-07-20T04:54:50.493Z,3.80
2017-07-20T04:57:17.694Z,3.27
2017-07-20T04:59:44.969Z,3.07
2017-07-20T05:02:12.217Z,4.03
2017-07-20T05:04:40.373Z,3.40
2017-07-20T05:07:07.577Z,3.40
2017-07-20T05:09:34.776Z,3.50
2017-07-20T05:12:02.930Z,5.43
2017-07-20T05:14:30.152Z,4.37
2017-07-20T05:16:57.353Z,3.77
2017-07-20T05:19:24.553Z,3.40
2017-07-20T05:21:51.762Z,4.40
2017-07-20T05:24:18.965Z,3.30
2017-07-20T05:26:48.097Z,3.43
2017-07-20T05:29:15.297Z,3.60
2017-07-20T05:31:42.506Z,3.40
2017-07-20T05:34:10.461Z,3.90
2017-07-20T05:36:37.489Z,3.23
2017-07-20T05:39:04.453Z,4.40
2017-07-20T05:41:31.472Z,3.20
2017-07-20T05:43:58.676Z,4.10
2017-07-20T05:46:26.818Z,3.30
2017-07-20T05:48:53.861Z,4.07
2017-07-20T05:51:23.021Z,3.40
2017-07-20T05:53:50.229Z,3.70
2017-07-20T05:56:17.445Z,3.93
2017-07-20T05:58:45.593Z,3.20
2017-07-20T06:01:12.797Z,3.17
2017-07-20T06:03:40.040Z,3.53
2017-07-20T06:06:07.241Z,3.07
2017-07-20T06:08:34.447Z,3.43
2017-07-20T06:11:01.647Z,3.20
2017-07-20T06:13:28.859Z,4.00
2017-07-20T06:15:56.089Z,3.73
2017-07-20T06:18:23.288Z,3.57
2017-07-20T06:20:50.498Z,4.50
2017-07-20T06:23:17.703Z,3.30
2017-07-20T06:25:44.905Z,3.13
2017-07-20T06:28:12.126Z,3.03
2017-07-20T06:30:39.332Z,4.70
2017-07-20T06:33:06.540Z,5.13
2017-07-20T06:35:33.756Z,3.53
2017-07-20T06:38:00.961Z,4.03
2017-07-20T06:40:28.185Z,3.20
2017-07-20T06:42:56.335Z,3.40
2017-07-20T06:45:23.616Z,3.43
2017-07-20T06:47:50.822Z,2.80
2017-07-20T06:50:18.953Z,3.73
2017-07-20T06:52:46.177Z,3.47
2017-07-20T06:55:13.388Z,3.73
2017-07-20T06:57:40.601Z,3.67
2017-07-20T07:00:07.813Z,4.50
2017-07-20T07:02:35.020Z,3.60
2017-07-20T07:05:02.236Z,3.13
2017-07-20T07:07:30.386Z,3.70
2017-07-20T07:09:57.593Z,3.47
2017-07-20T07:12:24.797Z,3.67
2017-07-20T07:14:51.994Z,3.20
2017-07-20T07:17:19.219Z,3.10
2017-07-20T07:19:46.437Z,3.00
2017-07-20T07:22:13.644Z,3.17
2017-07-20T07:24:41.793Z,3.10
2017-07-20T07:27:08.996Z,3.13
2017-07-20T07:29:36.212Z,3.13
2017-07-20T07:32:03.419Z,2.97
2017-07-20T07:34:30.624Z,2.73
2017-07-20T07:36:57.824Z,2.73
2017-07-20T07:39:25.029Z,2.87
2017-07-20T07:41:52.270Z,2.50
2017-07-20T07:44:19.465Z,2.80
2017-07-20T07:46:46.676Z,3.00
2017-07-20T07:49:13.886Z,2.67
2017-07-20T07:51:41.090Z,2.70
2017-07-20T07:54:08.317Z,2.60
2017-07-20T07:56:35.536Z,3.20
2017-07-20T07:59:02.736Z,2.60
2017-07-20T08:01:29.960Z,2.63
2017-07-20T08:03:57.749Z,2.87
2017-07-20T08:06:24.956Z,3.13
2017-07-20T08:08:54.126Z,3.17
2017-07-20T08:11:21.328Z,2.67
2017-07-20T08:13:48.533Z,2.77
2017-07-20T08:16:16.673Z,3.30
2017-07-20T08:18:43.884Z,2.90
2017-07-20T08:21:11.084Z,2.83
2017-07-20T08:23:38.283Z,2.93
2017-07-20T08:26:05.480Z,3.50
2017-07-20T08:28:32.685Z,2.67
2017-07-20T08:30:59.901Z,3.27
2017-07-20T08:33:27.105Z,2.67
2017-07-20T08:35:56.269Z,3.37
2017-07-20T08:38:23.472Z,2.90
2017-07-20T08:40:50.678Z,2.97
2017-07-20T08:43:17.885Z,2.83
2017-07-20T08:45:45.089Z,2.60
2017-07-20T08:48:12.316Z,3.83
2017-07-20T08:50:39.545Z,2.80
2017-07-20T08:53:06.752Z,2.63
2017-07-20T08:55:33.975Z,2.90
2017-07-20T08:58:01.180Z,3.00
2017-07-20T09:00:28.400Z,2.73
2017-07-20T09:02:55.614Z,2.63
2017-07-20T09:05:22.825Z,2.47
2017-07-20T09:07:50.029Z,3.40
2017-07-20T09:10:17.228Z,3.10
2017-07-20T09:12:46.397Z,3.37
2017-07-20T09:15:13.596Z,3.73
2017-07-20T09:17:40.803Z,2.60
2017-07-20T09:20:08.009Z,2.97
2017-07-20T09:22:35.216Z,3.00
2017-07-20T09:25:02.441Z,3.23
2017-07-20T09:27:29.640Z,3.37
2017-07-20T09:29:56.844Z,3.73
2017-07-20T09:32:24.988Z,3.07
2017-07-20T09:34:52.197Z,3.00
2017-07-20T09:37:19.417Z,2.70
2017-07-20T09:39:47.560Z,2.97
2017-07-20T09:42:14.763Z,2.73
2017-07-20T09:44:41.960Z,2.93
2017-07-20T09:47:09.920Z,2.47
2017-07-20T09:49:37.145Z,2.73
2017-07-20T09:52:04.350Z,3.47
2017-07-20T09:54:31.548Z,2.97
2017-07-20T09:56:58.763Z,2.50
2017-07-20T09:59:25.969Z,3.37
2017-07-20T10:01:53.193Z,3.07
2017-07-20T10:04:21.333Z,2.97
2017-07-20T10:06:48.534Z,3.00
2017-07-20T10:09:15.732Z,2.30
2017-07-20T10:11:42.936Z,2.57
2017-07-20T10:14:10.161Z,2.53
2017-07-20T10:16:38.292Z,2.30
2017-07-20T10:19:05.488Z,2.67
2017-07-20T10:21:32.697Z,2.50
2017-07-20T10:24:00.844Z,2.60
2017-07-20T10:26:28.072Z,3.20
2017-07-20T10:28:55.277Z,2.30
2017-07-20T10:31:22.479Z,3.10
2017-07-20T10:33:49.684Z,2.73
2017-07-20T10:36:16.888Z,3.00
2017-07-20T10:38:44.110Z,2.70
2017-07-20T10:41:11.321Z,2.80
2017-07-20T10:43:38.529Z,3.20
2017-07-20T10:46:05.749Z,2.40
2017-07-20T10:48:32.960Z,2.80
2017-07-20T10:51:00.190Z,2.73
2017-07-20T10:53:27.389Z,2.60
2017-07-20T10:55:54.593Z,2.80
2017-07-20T10:58:21.797Z,2.13
2017-07-20T11:00:49.000Z,2.60
2017-07-20T11:03:18.167Z,2.70
2017-07-20T11:05:45.368Z,2.67
2017-07-20T11:08:12.587Z,2.73
2017-07-20T11:10:39.793Z,2.63
2017-07-20T11:13:07.006Z,2.93
2017-07-20T11:15:34.233Z,2.70
2017-07-20T11:18:01.449Z,2.60
2017-07-20T11:20:28.652Z,2.87
2017-07-20T11:22:55.857Z,2.80
2017-07-20T11:25:23.068Z,2.80
2017-07-20T11:27:50.297Z,2.50
2017-07-20T11:30:17.496Z,2.53
2017-07-20T11:32:44.696Z,2.50
2017-07-20T11:35:11.892Z,2.27
2017-07-20T11:37:39.093Z,3.07
2017-07-20T11:40:06.317Z,2.57
2017-07-20T11:42:33.520Z,2.67
2017-07-20T11:45:00.713Z,2.17
2017-07-20T11:47:27.934Z,2.70
2017-07-20T11:49:55.138Z,2.30
2017-07-20T11:52:22.364Z,2.53
2017-07-20T11:54:49.568Z,2.40
2017-07-20T11:57:16.780Z,2.40
2017-07-20T11:59:43.977Z,2.67
2017-07-20T12:02:12.140Z,2.77
2017-07-20T12:04:39.362Z,2.20
2017-07-20T12:07:06.564Z,2.07
2017-07-20T12:09:33.774Z,2.80
2017-07-20T12:12:00.976Z,2.10
2017-07-20T12:14:28.176Z,2.20
2017-07-20T12:16:57.341Z,2.50
2017-07-20T12:19:24.551Z,2.07
2017-07-20T12:21:51.766Z,2.53
2017-07-20T12:24:18.968Z,2.53
2017-07-20T12:26:46.173Z,2.53
2017-07-20T12:29:13.395Z,2.90
2017-07-20T12:31:40.600Z,2.57
2017-07-20T12:34:07.808Z,2.17
2017-07-20T12:36:35.009Z,2.20
2017-07-20T12:39:02.212Z,2.77
2017-07-20T12:41:29.437Z,2.23
2017-07-20T12:43:56.640Z,2.70
2017-07-20T12:46:23.845Z,2.60
2017-07-20T12:48:51.045Z,2.00
2017-07-20T12:51:18.250Z,1.93
2017-07-20T12:53:47.420Z,2.30
2017-07-20T12:56:14.627Z,2.60
2017-07-20T12:58:41.842Z,3.67
2017-07-20T13:01:09.053Z,3.80
2017-07-20T13:03:36.252Z,3.10
2017-07-20T13:06:03.474Z,3.80
2017-07-20T13:08:30.696Z,3.60
2017-07-20T13:10:57.897Z,4.00
2017-07-20T13:13:26.061Z,4.27
2017-07-20T13:15:53.256Z,4.00
2017-07-20T13:18:20.488Z,4.40
2017-07-20T13:20:48.628Z,5.10
2017-07-20T13:23:15.824Z,4.20
2017-07-20T13:25:43.308Z,4.75
2017-07-20T13:28:10.513Z,4.87
2017-07-20T13:30:37.752Z,5.67
2017-07-20T13:33:04.953Z,4.90
2017-07-20T13:35:32.452Z,5.70
2017-07-20T13:37:59.947Z,5.78
2017-07-20T13:40:27.163Z,5.60
2017-07-20T13:42:54.703Z,5.60
2017-07-20T13:45:21.908Z,5.83
2017-07-20T13:47:49.120Z,5.40
2017-07-20T13:50:16.605Z,6.22
2017-07-20T13:52:44.104Z,6.65
2017-07-20T13:55:11.630Z,7.43
2017-07-20T13:57:39.121Z,7.05
2017-07-20T14:00:06.618Z,6.18
2017-07-20T14:02:34.121Z,6.60
2017-07-20T14:05:01.614Z,6.97
2017-07-20T14:07:29.738Z,7.75
2017-07-20T14:10:04.772Z,8.02
2017-07-20T14:12:32.594Z,6.95
2017-07-20T14:15:00.080Z,7.12
2017-07-20T14:17:28.528Z,8.40
2017-07-20T14:19:57.036Z,8.38
2017-07-20T14:22:25.897Z,7.45
2017-07-20T14:24:53.397Z,7.43
2017-07-20T14:27:20.907Z,7.57
2017-07-20T14:29:48.407Z,7.40
2017-07-20T14:32:15.920Z,6.82
2017-07-20T14:34:43.130Z,6.80
2017-07-20T14:37:10.628Z,7.22
2017-07-20T14:39:38.126Z,8.05
2017-07-20T14:42:05.342Z,7.00
2017-07-20T14:44:32.568Z,6.43
2017-07-20T14:46:59.781Z,6.70
2017-07-20T14:49:26.994Z,7.03
2017-07-20T14:51:54.212Z,7.03
2017-07-20T14:54:22.349Z,6.57
2017-07-20T14:56:49.572Z,6.17
2017-07-20T14:59:16.780Z,6.67
2017-07-20T15:01:43.984Z,6.70
2017-07-20T15:04:11.197Z,5.70
2017-07-20T15:06:38.418Z,6.20
2017-07-20T15:09:07.581Z,6.10
2017-07-20T15:11:34.798Z,6.00
2017-07-20T15:14:02.004Z,5.53
2017-07-20T15:16:29.208Z,5.60
2017-07-20T15:18:56.414Z,7.33
2017-07-20T15:21:25.585Z,6.10
2017-07-20T15:23:52.801Z,6.47
2017-07-20T15:26:20.017Z,7.13
2017-07-20T15:28:48.164Z,6.60
2017-07-20T15:31:15.376Z,6.70
2017-07-20T15:33:42.614Z,6.10
2017-07-20T15:36:10.775Z,6.03
2017-07-20T15:38:37.973Z,5.27
2017-07-20T15:41:05.175Z,4.20
2017-07-20T15:43:32.692Z,4.50
2017-07-20T15:46:01.858Z,4.70
2017-07-20T15:48:29.053Z,5.50
2017-07-20T15:50:56.254Z,4.63
2017-07-20T15:53:23.474Z,4.90
2017-07-20T15:55:50.681Z,5.50
2017-07-20T15:58:17.900Z,4.57
2017-07-20T16:00:45.396Z,4.10
2017-07-20T16:03:12.893Z,3.90
2017-07-20T16:05:40.389Z,4.15
2017-07-20T16:08:07.898Z,3.20
2017-07-20T16:10:35.135Z,3.60
2017-07-20T16:13:02.346Z,3.70
2017-07-20T16:15:29.554Z,3.87
2017-07-20T16:17:56.772Z,4.53
2017-07-20T16:20:23.972Z,3.43
2017-07-20T16:22:51.204Z,3.90
2017-07-20T16:25:18.406Z,3.70
2017-07-20T16:27:45.625Z,3.90
2017-07-20T16:30:12.833Z,3.93
2017-07-20T16:32:40.040Z,3.00
2017-07-20T16:35:07.260Z,3.20
2017-07-20T16:37:34.461Z,3.13
2017-07-20T16:40:02.608Z,2.87
2017-07-20T16:42:29.804Z,2.60
2017-07-20T16:44:57.009Z,2.50
2017-07-20T16:47:24.233Z,3.07
2017-07-20T16:49:51.439Z,3.33
2017-07-20T16:52:18.665Z,3.00
2017-07-20T16:54:45.874Z,3.00
2017-07-20T16:57:13.090Z,2.87
2017-07-20T16:59:40.312Z,3.40
2017-07-20T17:02:07.513Z,3.40
2017-07-20T17:04:34.716Z,3.30
2017-07-20T17:07:03.169Z,3.17
2017-07-20T17:09:31.317Z,2.90
2017-07-20T17:12:01.967Z,4.10
2017-07-20T17:14:29.192Z,4.40
2017-07-20T17:16:56.416Z,4.97
2017-07-20T17:19:23.628Z,4.73
2017-07-20T17:21:50.846Z,5.17
2017-07-20T17:24:18.076Z,4.83
2017-07-20T17:26:45.282Z,4.80
2017-07-20T17:29:12.502Z,4.77
2017-07-20T17:31:39.705Z,4.60
2017-07-20T17:34:06.920Z,4.60
2017-07-20T17:36:34.144Z,4.90
2017-07-20T17:39:01.349Z,4.03
2017-07-20T17:41:28.553Z,4.10
2017-07-20T17:43:55.756Z,4.10
2017-07-20T17:46:23.906Z,3.60
2017-07-20T17:48:51.137Z,4.27
2017-07-20T17:51:18.343Z,4.17
2017-07-20T17:53:45.559Z,3.80
2017-07-20T17:56:12.774Z,3.73
2017-07-20T17:58:39.985Z,3.90
2017-07-20T18:01:07.228Z,4.20
2017-07-20T18:03:34.446Z,4.70
2017-07-20T18:06:01.686Z,4.97
2017-07-20T18:08:29.825Z,5.20
2017-07-20T18:10:57.028Z,4.90
2017-07-20T18:13:24.268Z,5.73
2017-07-20T18:15:52.421Z,5.17
2017-07-20T18:18:19.638Z,4.00
2017-07-20T18:20:46.848Z,4.90
2017-07-20T18:23:16.490Z,4.27
2017-07-20T18:25:43.560Z,4.63
2017-07-20T18:28:11.744Z,5.00
2017-07-20T18:30:38.949Z,5.63
2017-07-20T18:33:06.157Z,5.03
2017-07-20T18:35:33.368Z,6.70
2017-07-20T18:38:00.594Z,6.53
2017-07-20T18:40:27.808Z,6.47
2017-07-20T18:42:55.020Z,5.37
2017-07-20T18:45:22.226Z,6.33
2017-07-20T18:47:49.434Z,5.17
2017-07-20T18:50:16.662Z,5.27
2017-07-20T18:52:44.107Z,5.33
2017-07-20T18:55:11.308Z,5.83
2017-07-20T18:57:38.514Z,5.60
2017-07-20T19:00:05.716Z,5.80
2017-07-20T19:02:32.950Z,6.03
2017-07-20T19:05:00.161Z,5.83
2017-07-20T19:07:27.369Z,5.87
2017-07-20T19:09:54.861Z,6.60
2017-07-20T19:12:22.065Z,6.73
2017-07-20T19:14:49.301Z,7.50
2017-07-20T19:17:16.504Z,6.70
2017-07-20T19:19:43.723Z,8.17
2017-07-20T19:22:10.932Z,7.47
2017-07-20T19:24:38.142Z,6.73
2017-07-20T19:27:07.323Z,7.00
2017-07-20T19:29:34.545Z,7.97
2017-07-20T19:32:02.037Z,8.93
2017-07-20T19:34:29.533Z,8.13
2017-07-20T19:36:57.021Z,9.05
2017-07-20T19:39:24.535Z,8.77
2017-07-20T19:41:52.034Z,8.68
2017-07-20T19:44:19.552Z,8.85
2017-07-20T19:46:46.761Z,8.33
2017-07-20T19:49:13.964Z,8.10
2017-07-20T19:51:41.482Z,7.18
2017-07-20T19:54:09.638Z,8.03
2017-07-20T19:56:37.127Z,7.78
2017-07-20T19:59:04.624Z,7.28
2017-07-20T20:01:32.125Z,7.90
2017-07-20T20:03:59.645Z,7.45
2017-07-20T20:06:27.161Z,7.55
2017-07-20T20:08:54.656Z,6.97
2017-07-20T20:11:22.185Z,7.18
2017-07-20T20:13:49.683Z,7.45
2017-07-20T20:16:17.212Z,9.00
2017-07-20T20:18:46.249Z,8.60
2017-07-20T20:21:13.800Z,8.65
2017-07-20T20:23:41.296Z,8.90
2017-07-20T20:26:08.797Z,8.50
2017-07-20T20:28:36.284Z,7.20
2017-07-20T20:31:03.785Z,7.97
2017-07-20T20:33:31.279Z,8.00
2017-07-20T20:35:58.786Z,9.40
2017-07-20T20:38:26.277Z,9.85
2017-07-20T20:40:53.810Z,7.93
2017-07-20T20:43:21.346Z,8.02
2017-07-20T20:45:48.846Z,7.60
2017-07-20T20:48:16.341Z,7.47
2017-07-20T20:50:43.848Z,7.07
2017-07-20T20:53:11.342Z,7.47
2017-07-20T20:55:38.849Z,6.25
2017-07-20T20:58:06.341Z,6.25
2017-07-20T21:00:33.873Z,7.20
2017-07-20T21:03:01.365Z,6.60
2017-07-20T21:05:28.861Z,6.07
2017-07-20T21:07:56.389Z,6.40
2017-07-20T21:10:23.884Z,6.28
2017-07-20T21:12:51.380Z,5.85
2017-07-20T21:15:20.013Z,6.05
2017-07-20T21:17:47.509Z,6.03
2017-07-20T21:20:15.030Z,5.55
2017-07-20T21:22:42.520Z,5.93
2017-07-20T21:25:10.016Z,4.60
2017-07-20T21:27:37.517Z,5.05
2017-07-20T21:30:05.378Z,4.93
2017-07-20T21:32:32.898Z,5.28
2017-07-20T21:35:00.442Z,5.32
2017-07-20T21:37:27.925Z,5.70
2017-07-20T21:39:55.417Z,5.50
2017-07-20T21:42:22.905Z,6.37
2017-07-20T21:44:50.417Z,5.45
2017-07-20T21:47:17.902Z,6.07
2017-07-20T21:49:45.393Z,6.20
2017-07-20T21:52:12.893Z,5.15
2017-07-20T21:54:40.394Z,6.12
2017-07-20T21:57:07.912Z,5.37
2017-07-20T21:59:35.416Z,5.32
2017-07-20T22:02:02.916Z,6.22
2017-07-20T22:04:30.414Z,5.95
2017-07-20T22:06:57.904Z,5.50
2017-07-20T22:09:25.423Z,5.95
2017-07-20T22:11:52.916Z,5.10
2017-07-20T22:14:20.409Z,5.37
2017-07-20T22:16:47.910Z,5.53
2017-07-20T22:19:15.396Z,5.00
2017-07-20T22:21:43.887Z,5.20
2017-07-20T22:24:11.404Z,5.00
2017-07-20T22:26:38.901Z,4.75
2017-07-20T22:29:06.398Z,5.75
2017-07-20T22:31:33.904Z,4.80
2017-07-20T22:34:01.413Z,4.90
2017-07-20T22:36:28.900Z,4.82
2017-07-20T22:38:56.410Z,5.10
2017-07-20T22:41:23.907Z,4.57
2017-07-20T22:43:51.412Z,5.20
2017-07-20T22:46:18.924Z,3.97
2017-07-20T22:48:46.412Z,4.57
2017-07-20T22:51:13.938Z,4.80
2017-07-20T22:53:41.423Z,5.15
2017-07-20T22:56:08.918Z,4.85
2017-07-20T22:58:36.429Z,4.55
2017-07-20T23:01:03.920Z,3.50
2017-07-20T23:03:31.225Z,4.15
2017-07-20T23:05:58.735Z,4.60
2017-07-20T23:08:26.234Z,4.43
2017-07-20T23:10:53.749Z,4.62
2017-07-20T23:13:21.245Z,4.47
2017-07-20T23:15:48.740Z,4.00
2017-07-20T23:18:16.241Z,4.30
2017-07-20T23:20:43.730Z,3.85
2017-07-20T23:23:11.241Z,3.83
2017-07-20T23:25:38.733Z,4.07
2017-07-20T23:28:06.217Z,4.43
2017-07-20T23:30:33.741Z,4.40
2017-07-20T23:33:01.914Z,4.15
2017-07-20T23:35:29.433Z,3.60
2017-07-20T23:37:56.941Z,3.83
2017-07-20T23:40:24.424Z,4.20
2017-07-20T23:42:51.945Z,4.30
2017-07-20T23:45:19.452Z,4.30
2017-07-20T23:47:46.969Z,4.68
2017-07-20T23:50:14.473Z,4.40
2017-07-20T23:52:41.960Z,3.97
2017-07-20T23:55:09.453Z,4.18
2017-07-20T23:57:36.954Z,4.25
